Time;durP1;ratioP1;P1;durP2;ratioP2;P2;SDS_P1;SDS_P2;PMS_P1;PMS_P2;Temp;Humidity;BMP_temperature;BMP_pressure;BME280_temperature;BME280_humidity;BME280_pressure;Samples;Min_cycle;Max_cycle;Signal;HPM_P1;HPM_P2
2022/05/01 00:00:31;;;;;;;;;;;9.30;98.80;;;;;;5093778;28;19912;-71
2022/05/01 00:02:57;;;;;;;;;;;9.30;98.70;;;;;;5093594;28;20283;-72
2022/05/01 00:05:23;;;;;;;;;;;9.40;98.50;;;;;;5093947;28;20003;-72
2022/05/01 00:07:48;;;;;;;;;;;9.40;98.70;;;;;;5093986;28;20330;-72
2022/05/01 00:10:14;;;;;;;;;;;9.30;99.00;;;;;;5092273;28;19908;-72
2022/05/01 00:12:39;;;;;;;;;;;9.30;98.70;;;;;;5093870;28;19916;-73
2022/05/01 00:15:06;;;;;;;;;;;9.30;98.90;;;;;;5093382;28;19912;-73
2022/05/01 00:17:31;;;;;;;;;;;9.30;98.70;;;;;;5091680;28;19925;-72
2022/05/01 00:19:57;;;;;;;;;;;9.20;98.90;;;;;;5093319;28;19931;-72
2022/05/01 00:22:22;;;;;;;;;;;9.20;99.10;;;;;;5092058;28;19922;-72
2022/05/01 00:24:48;;;;;;;;;;;9.20;99.00;;;;;;5091907;28;19963;-72
2022/05/01 00:27:13;;;;;;;;;;;9.10;99.00;;;;;;5092873;28;19947;-72
2022/05/01 00:29:39;;;;;;;;;;;9.20;99.20;;;;;;5093276;28;19947;-72
2022/05/01 00:32:05;;;;;;;;;;;8.80;99.20;;;;;;5093335;28;19953;-72
2022/05/01 00:37:15;;;;;;;;;;;9.10;99.80;;;;;;5093301;28;20263;-73
2022/05/01 00:39:40;;;;;;;;;;;9.10;99.90;;;;;;5093050;28;19908;-72
2022/05/01 00:42:06;;;;;;;;;;;9.10;99.90;;;;;;5092912;28;19923;-73
2022/05/01 00:44:31;;;;;;;;;;;9.00;99.90;;;;;;5092873;28;19911;-73
2022/05/01 00:46:59;;;;;;;;;;;9.00;99.90;;;;;;5093185;28;19969;-72
2022/05/01 00:49:26;;;;;;;;;;;9.00;99.90;;;;;;5092671;28;19908;-72
2022/05/01 00:52:04;;;;;;;;;;;9.00;99.90;;;;;;5093069;28;20000;-72
2022/05/01 00:54:30;;;;;;;;;;;8.50;99.90;;;;;;5092712;28;19923;-72
2022/05/01 00:57:03;;;;;;;;;;;8.90;99.90;;;;;;5092825;28;19931;-72
2022/05/01 00:59:29;;;;;;;;;;;8.80;99.90;;;;;;5092628;28;20257;-72
2022/05/01 01:01:54;;;;;;;;;;;8.80;99.90;;;;;;5092857;28;19999;-72
2022/05/01 01:04:20;;;;;;;;;;;8.80;99.90;;;;;;5091006;28;19947;-72
2022/05/01 01:06:46;;;;;;;;;;;8.70;99.90;;;;;;5092841;28;19924;-72
2022/05/01 01:09:11;;;;;;;;;;;8.70;99.90;;;;;;5092359;28;20338;-73
2022/05/01 01:11:38;;;;;;;;;;;8.60;99.90;;;;;;5091016;28;20322;-72
2022/05/01 01:14:05;;;;;;;;;;;8.60;99.90;;;;;;5092235;28;20434;-72
2022/05/01 01:16:35;;;;;;;;;;;8.50;99.90;;;;;;5091980;28;19928;-72
2022/05/01 01:19:05;;;;;;;;;;;8.50;99.90;;;;;;5092135;28;19912;-72
2022/05/01 01:21:30;;;;;;;;;;;8.50;99.90;;;;;;5092364;28;19939;-72
2022/05/01 01:23:57;;;;;;;;;;;8.50;99.90;;;;;;5092062;28;19908;-73
2022/05/01 01:26:22;;;;;;;;;;;8.50;99.90;;;;;;5091894;28;20435;-72
2022/05/01 01:28:48;;;;;;;;;;;8.50;99.90;;;;;;5091976;28;19995;-72
2022/05/01 01:33:59;;;;;;;;;;;8.50;99.90;;;;;;5092088;28;19930;-73
2022/05/01 01:36:26;;;;;;;;;;;8.50;99.90;;;;;;5092184;28;19924;-72
2022/05/01 01:38:52;;;;;;;;;;;8.50;99.90;;;;;;5091936;28;19912;-73
2022/05/01 01:41:21;;;;;;;;;;;8.50;99.90;;;;;;5092015;28;19916;-72
2022/05/01 01:43:48;;;;;;;;;;;8.50;99.90;;;;;;5091843;28;19915;-72
2022/05/01 01:46:14;;;;;;;;;;;8.50;99.90;;;;;;5090467;28;20366;-72
2022/05/01 01:48:39;;;;;;;;;;;8.50;99.90;;;;;;5091825;28;19908;-72
2022/05/01 01:51:06;;;;;;;;;;;8.50;99.90;;;;;;5091885;28;20011;-72
2022/05/01 01:53:32;;;;;;;;;;;8.50;99.90;;;;;;5091869;28;19908;-72
2022/05/01 01:55:58;;;;;;;;;;;8.50;99.90;;;;;;5091608;28;19916;-72
2022/05/01 01:58:24;;;;;;;;;;;8.50;99.90;;;;;;5091461;28;19923;-73
2022/05/01 02:00:50;;;;;;;;;;;8.50;99.90;;;;;;5091871;28;19909;-72
2022/05/01 02:03:15;;;;;;;;;;;8.50;99.90;;;;;;5091840;28;20371;-72
2022/05/01 02:05:41;;;;;;;;;;;8.50;99.90;;;;;;5091335;28;19915;-72
2022/05/01 02:08:07;;;;;;;;;;;8.40;99.90;;;;;;5091445;28;20279;-72
2022/05/01 02:10:33;;;;;;;;;;;8.40;99.90;;;;;;5091329;28;19930;-72
2022/05/01 02:13:01;;;;;;;;;;;8.40;99.90;;;;;;5091618;28;19944;-72
2022/05/01 02:15:36;;;;;;;;;;;8.40;99.90;;;;;;5091359;28;19908;-72
2022/05/01 02:18:02;;;;;;;;;;;8.30;99.90;;;;;;5091607;28;19924;-72
2022/05/01 02:21:33;;;;;;;;;;;8.40;99.90;;;;;;5091319;28;19908;-72
2022/05/01 02:23:14;;;;;;;;;;;8.30;99.90;;;;;;5091373;28;20347;-72
2022/05/01 02:25:40;;;;;;;;;;;8.30;99.90;;;;;;5091282;28;19934;-72
2022/05/01 02:28:06;;;;;;;;;;;8.30;99.90;;;;;;5090954;28;20295;-73
2022/05/01 02:30:31;;;;;;;;;;;8.30;99.90;;;;;;5091193;28;19958;-73
2022/05/01 02:32:57;;;;;;;;;;;8.30;99.90;;;;;;5091111;28;19922;-72
2022/05/01 02:35:23;;;;;;;;;;;8.30;99.90;;;;;;5091063;28;20006;-72
2022/05/01 02:37:48;;;;;;;;;;;8.30;99.90;;;;;;5089598;28;19916;-72
2022/05/01 02:40:14;;;;;;;;;;;8.30;99.90;;;;;;5091393;28;19912;-72
2022/05/01 02:42:39;;;;;;;;;;;8.30;99.90;;;;;;5091611;28;19958;-72
2022/05/01 02:45:06;;;;;;;;;;;8.30;99.90;;;;;;5091381;28;19923;-72
2022/05/01 02:47:31;;;;;;;;;;;8.30;99.90;;;;;;5089900;28;20428;-71
2022/05/01 02:49:57;;;;;;;;;;;8.30;99.90;;;;;;5090892;28;19995;-71
2022/05/01 02:52:22;;;;;;;;;;;8.20;99.90;;;;;;5089878;28;19912;-72
2022/05/01 02:54:48;;;;;;;;;;;8.30;99.90;;;;;;5090806;28;19960;-72
2022/05/01 02:57:13;;;;;;;;;;;8.30;99.90;;;;;;5089630;28;19916;-71
2022/05/01 02:59:39;;;;;;;;;;;8.30;99.90;;;;;;5092738;28;19912;-71
2022/05/01 03:02:04;;;;;;;;;;;8.30;99.90;;;;;;5095320;28;19912;-72
2022/05/01 03:04:30;;;;;;;;;;;8.20;99.90;;;;;;5094838;28;19912;-72
2022/05/01 03:06:56;;;;;;;;;;;8.20;99.90;;;;;;5095103;28;19927;-71
2022/05/01 03:09:22;;;;;;;;;;;9.20;99.90;;;;;;5094836;28;20407;-72
2022/05/01 03:11:47;;;;;;;;;;;8.30;99.90;;;;;;5094741;28;19999;-72
2022/05/01 03:14:13;;;;;;;;;;;8.30;99.90;;;;;;5094689;28;20287;-72
2022/05/01 03:16:38;;;;;;;;;;;8.30;99.90;;;;;;5094360;28;20046;-72
2022/05/01 03:24:32;;;;;;;;;;;8.40;99.90;;;;;;5094583;28;20041;-71
2022/05/01 03:26:57;;;;;;;;;;;8.40;99.90;;;;;;5094499;28;19951;-72
2022/05/01 03:29:23;;;;;;;;;;;8.40;99.90;;;;;;5094452;28;19908;-72
2022/05/01 03:31:50;;;;;;;;;;;8.50;99.90;;;;;;5094105;28;19916;-72
2022/05/01 03:34:17;;;;;;;;;;;8.60;99.90;;;;;;5094430;28;20007;-72
2022/05/01 03:36:44;;;;;;;;;;;8.60;99.90;;;;;;5094708;28;20359;-71
2022/05/01 03:39:10;;;;;;;;;;;8.70;99.90;;;;;;5094362;28;20265;-71
2022/05/01 03:41:35;;;;;;;;;;;8.80;99.90;;;;;;5094369;28;19943;-72
2022/05/01 03:44:01;;;;;;;;;;;8.90;99.90;;;;;;5094239;28;19908;-71
2022/05/01 03:46:27;;;;;;;;;;;8.90;99.90;;;;;;5094206;28;19917;-72
2022/05/01 03:48:52;;;;;;;;;;;9.00;99.90;;;;;;5094084;28;20355;-72
2022/05/01 03:51:18;;;;;;;;;;;9.10;99.90;;;;;;5094104;28;20229;-72
2022/05/01 03:53:45;;;;;;;;;;;9.20;99.90;;;;;;5092677;28;20380;-72
2022/05/01 03:56:11;;;;;;;;;;;9.30;99.90;;;;;;5093726;28;19998;-71
2022/05/01 03:58:36;;;;;;;;;;;9.50;99.90;;;;;;5094091;28;20045;-72
2022/05/01 04:01:02;;;;;;;;;;;9.50;99.90;;;;;;5093601;28;19916;-72
2022/05/01 04:03:28;;;;;;;;;;;9.60;99.90;;;;;;5094198;28;19914;-72
2022/05/01 04:05:54;;;;;;;;;;;9.70;99.90;;;;;;5093526;28;19916;-72
2022/05/01 04:08:19;;;;;;;;;;;9.70;99.90;;;;;;5093807;28;19919;-72
2022/05/01 04:10:46;;;;;;;;;;;9.80;99.90;;;;;;5093481;28;19915;-72
2022/05/01 04:13:12;;;;;;;;;;;9.90;99.90;;;;;;5092386;28;20411;-71
2022/05/01 04:15:38;;;;;;;;;;;10.00;99.90;;;;;;5093310;28;19961;-72
2022/05/01 04:18:04;;;;;;;;;;;10.00;99.90;;;;;;5091943;28;19912;-71
2022/05/01 04:20:29;;;;;;;;;;;10.10;99.90;;;;;;5092056;28;19999;-72
2022/05/01 04:22:56;;;;;;;;;;;10.20;99.90;;;;;;5093760;28;20027;-71
2022/05/01 04:25:26;;;;;;;;;;;10.20;99.90;;;;;;5093315;28;19934;-71
2022/05/01 04:28:18;;;;;;;;;;;10.30;99.90;;;;;;5093599;28;20377;-72
2022/05/01 04:30:44;;;;;;;;;;;10.40;99.90;;;;;;5089991;28;19912;-71
2022/05/01 04:33:10;;;;;;;;;;;10.50;99.90;;;;;;5093269;28;19965;-72
2022/05/01 04:35:37;;;;;;;;;;;10.60;99.90;;;;;;5091604;28;19970;-71
2022/05/01 04:38:04;;;;;;;;;;;10.70;99.90;;;;;;5092951;28;20396;-72
2022/05/01 04:40:31;;;;;;;;;;;10.70;99.90;;;;;;5093286;28;19908;-71
2022/05/01 04:43:10;;;;;;;;;;;10.80;99.90;;;;;;5093443;28;19916;-72
2022/05/01 04:45:36;;;;;;;;;;;10.90;99.90;;;;;;5092793;28;20415;-72
2022/05/01 04:48:02;;;;;;;;;;;11.00;99.90;;;;;;5092801;28;20084;-71
2022/05/01 04:50:28;;;;;;;;;;;11.00;99.90;;;;;;5091504;28;20019;-71
2022/05/01 04:52:54;;;;;;;;;;;11.10;99.90;;;;;;5093166;28;19912;-72
2022/05/01 04:55:19;;;;;;;;;;;11.20;99.90;;;;;;5092801;28;20280;-71
2022/05/01 04:57:45;;;;;;;;;;;11.30;99.90;;;;;;5093004;28;19916;-71
2022/05/01 05:00:10;;;;;;;;;;;11.40;99.90;;;;;;5091331;28;19912;-71
2022/05/01 05:02:37;;;;;;;;;;;11.50;99.90;;;;;;5093006;28;19916;-72
2022/05/01 05:05:03;;;;;;;;;;;11.70;99.90;;;;;;5092703;28;20003;-73
2022/05/01 05:07:30;;;;;;;;;;;11.70;99.90;;;;;;5092901;28;19912;-71
2022/05/01 05:09:55;;;;;;;;;;;11.80;99.90;;;;;;5092531;28;19919;-72
2022/05/01 05:12:22;;;;;;;;;;;12.00;99.90;;;;;;5091316;28;19912;-72
2022/05/01 05:14:49;;;;;;;;;;;12.10;99.90;;;;;;5092357;28;19912;-71
2022/05/01 05:17:18;;;;;;;;;;;12.20;99.00;;;;;;5091892;28;19931;-72
2022/05/01 05:19:43;;;;;;;;;;;12.20;98.60;;;;;;5092482;28;19912;-71
2022/05/01 05:22:09;;;;;;;;;;;12.20;98.60;;;;;;5091794;28;19916;-72
2022/05/01 05:24:34;;;;;;;;;;;12.30;98.40;;;;;;5092413;28;19934;-72
2022/05/01 05:27:00;;;;;;;;;;;12.30;98.50;;;;;;5092455;28;19931;-72
2022/05/01 05:29:25;;;;;;;;;;;12.20;98.50;;;;;;5092475;28;19914;-72
2022/05/01 05:31:51;;;;;;;;;;;12.20;98.00;;;;;;5092316;28;19977;-73
2022/05/01 05:34:16;;;;;;;;;;;12.40;97.80;;;;;;5092016;28;19919;-73
2022/05/01 05:36:42;;;;;;;;;;;12.60;98.10;;;;;;5090644;28;19966;-72
2022/05/01 05:39:07;;;;;;;;;;;13.00;95.60;;;;;;5092002;28;20406;-73
2022/05/01 05:41:33;;;;;;;;;;;13.20;94.60;;;;;;5092114;28;19916;-72
2022/05/01 05:43:58;;;;;;;;;;;13.20;95.00;;;;;;5091722;28;19930;-73
2022/05/01 05:46:24;;;;;;;;;;;13.00;94.70;;;;;;5091918;28;20388;-73
2022/05/01 05:48:49;;;;;;;;;;;12.90;94.70;;;;;;5091973;28;19916;-72
2022/05/01 05:51:14;;;;;;;;;;;13.60;94.90;;;;;;5091856;28;20022;-72
2022/05/01 05:53:40;;;;;;;;;;;12.80;95.00;;;;;;5091582;28;20382;-73
2022/05/01 05:56:05;;;;;;;;;;;12.90;95.40;;;;;;5091779;28;20020;-73
2022/05/01 05:58:31;;;;;;;;;;;13.10;95.40;;;;;;5091823;28;19920;-73
2022/05/01 06:00:56;;;;;;;;;;;13.40;95.00;;;;;;5091568;28;19927;-72
2022/05/01 06:03:22;;;;;;;;;;;13.80;95.20;;;;;;5091642;28;19993;-72
2022/05/01 06:05:47;;;;;;;;;;;14.20;94.60;;;;;;5091468;28;19958;-73
2022/05/01 06:08:15;;;;;;;;;;;14.50;93.60;;;;;;5091460;28;19908;-72
2022/05/01 06:10:40;;;;;;;;;;;14.60;93.90;;;;;;5090239;28;19908;-73
2022/05/01 06:13:06;;;;;;;;;;;14.90;93.40;;;;;;5091425;28;19912;-73
2022/05/01 06:15:31;;;;;;;;;;;15.10;91.50;;;;;;5091542;28;20021;-73
2022/05/01 06:17:57;;;;;;;;;;;15.10;91.00;;;;;;5091165;28;19928;-73
2022/05/01 06:20:22;;;;;;;;;;;15.20;89.80;;;;;;5091332;28;19912;-73
2022/05/01 06:22:51;;;;;;;;;;;15.20;90.20;;;;;;5091729;28;19924;-73
2022/05/01 06:25:16;;;;;;;;;;;15.20;90.30;;;;;;5091918;28;19920;-73
2022/05/01 06:27:42;;;;;;;;;;;15.40;89.60;;;;;;5091107;28;20292;-72
2022/05/01 06:30:10;;;;;;;;;;;15.70;88.60;;;;;;5091439;28;19955;-74
2022/05/01 06:32:35;;;;;;;;;;;15.90;86.30;;;;;;5091761;28;20376;-74
2022/05/01 06:35:02;;;;;;;;;;;16.20;87.50;;;;;;5095397;28;19908;-74
2022/05/01 06:37:28;;;;;;;;;;;16.00;85.20;;;;;;5095775;28;19924;-74
2022/05/01 06:39:53;;;;;;;;;;;15.80;86.00;;;;;;5093956;28;19908;-73
2022/05/01 06:42:19;;;;;;;;;;;15.90;84.90;;;;;;5095519;28;19916;-72
2022/05/01 06:44:44;;;;;;;;;;;16.20;84.30;;;;;;5093870;28;19960;-72
2022/05/01 06:47:12;;;;;;;;;;;16.50;84.60;;;;;;5095809;28;19916;-72
2022/05/01 06:49:38;;;;;;;;;;;16.50;81.80;;;;;;5095151;28;19908;-72
2022/05/01 06:52:04;;;;;;;;;;;16.60;81.60;;;;;;5095290;28;19926;-72
2022/05/01 06:54:29;;;;;;;;;;;16.60;82.20;;;;;;5093646;28;20308;-71
2022/05/01 06:56:55;;;;;;;;;;;16.80;80.20;;;;;;5095357;28;19920;-71
2022/05/01 06:59:20;;;;;;;;;;;17.00;80.20;;;;;;5094934;28;19908;-71
2022/05/01 07:01:47;;;;;;;;;;;17.10;80.50;;;;;;5095244;28;19920;-72
2022/05/01 07:04:13;;;;;;;;;;;17.50;78.70;;;;;;5093567;28;19908;-72
2022/05/01 07:06:40;;;;;;;;;;;17.50;77.20;;;;;;5094870;28;20435;-72
2022/05/01 07:09:06;;;;;;;;;;;17.60;78.10;;;;;;5094951;28;20363;-73
2022/05/01 07:11:32;;;;;;;;;;;17.90;77.40;;;;;;5094955;28;19916;-72
2022/05/01 07:13:57;;;;;;;;;;;18.00;74.60;;;;;;5095307;28;19915;-72
2022/05/01 07:16:22;;;;;;;;;;;18.20;74.60;;;;;;5094366;28;19931;-72
2022/05/01 07:18:48;;;;;;;;;;;18.40;73.90;;;;;;5094597;28;19919;-71
2022/05/01 07:21:14;;;;;;;;;;;18.50;75.10;;;;;;5093229;28;19994;-71
2022/05/01 07:23:39;;;;;;;;;;;18.40;74.50;;;;;;5094547;28;19930;-71
2022/05/01 07:26:05;;;;;;;;;;;18.60;74.20;;;;;;5094391;28;19916;-72
2022/05/01 07:28:32;;;;;;;;;;;18.70;72.70;;;;;;5094319;28;20371;-71
2022/05/01 07:30:58;;;;;;;;;;;18.80;70.90;;;;;;5094335;28;19916;-71
2022/05/01 07:33:24;;;;;;;;;;;18.80;70.50;;;;;;5094434;28;20268;-71
2022/05/01 07:35:49;;;;;;;;;;;18.60;67.00;;;;;;5094924;28;19927;-72
2022/05/01 07:38:15;;;;;;;;;;;18.30;66.90;;;;;;5094500;28;19912;-72
2022/05/01 07:40:40;;;;;;;;;;;18.30;66.50;;;;;;5093118;28;20275;-71
2022/05/01 07:43:06;;;;;;;;;;;18.40;68.20;;;;;;5094253;28;19912;-72
2022/05/01 07:45:31;;;;;;;;;;;18.70;68.60;;;;;;5093418;28;20431;-70
2022/05/01 07:47:58;;;;;;;;;;;19.00;69.40;;;;;;5092921;28;19920;-70
2022/05/01 07:50:24;;;;;;;;;;;19.10;67.50;;;;;;5094228;28;19908;-71
2022/05/01 07:52:49;;;;;;;;;;;19.20;67.40;;;;;;5092539;28;19939;-71
2022/05/01 07:55:15;;;;;;;;;;;19.30;65.40;;;;;;5092503;28;19908;-70
2022/05/01 07:57:41;;;;;;;;;;;19.40;65.00;;;;;;5094126;28;19986;-71
2022/05/01 08:00:07;;;;;;;;;;;19.50;65.20;;;;;;5093642;28;20396;-71
2022/05/01 08:02:34;;;;;;;;;;;19.60;64.80;;;;;;5094157;28;20016;-71
2022/05/01 08:04:59;;;;;;;;;;;19.70;62.00;;;;;;5093590;28;19934;-71
2022/05/01 08:07:25;;;;;;;;;;;19.70;62.50;;;;;;5092295;28;19920;-71
2022/05/01 08:09:50;;;;;;;;;;;19.80;64.20;;;;;;5093591;28;20346;-71
2022/05/01 08:12:16;;;;;;;;;;;19.90;62.00;;;;;;5093947;28;19920;-71
2022/05/01 08:14:44;;;;;;;;;;;20.20;61.90;;;;;;5093511;28;19998;-72
2022/05/01 08:17:09;;;;;;;;;;;20.40;60.40;;;;;;5093269;28;20320;-72
2022/05/01 08:22:19;;;;;;;;;;;20.80;61.10;;;;;;5092484;28;20010;-73
2022/05/01 08:24:44;;;;;;;;;;;20.40;59.50;;;;;;5092677;28;20344;-72
2022/05/01 08:27:10;;;;;;;;;;;20.10;61.40;;;;;;5093337;28;19969;-72
2022/05/01 08:29:38;;;;;;;;;;;20.70;62.00;;;;;;5093356;28;19920;-72
2022/05/01 08:32:04;;;;;;;;;;;19.70;61.50;;;;;;5093563;28;19916;-72
2022/05/01 08:34:29;;;;;;;;;;;19.50;59.60;;;;;;5093229;28;19977;-72
2022/05/01 08:36:55;;;;;;;;;;;19.20;61.10;;;;;;5093341;28;19951;-72
2022/05/01 08:39:21;;;;;;;;;;;18.90;60.70;;;;;;5093074;28;19908;-72
2022/05/01 08:41:46;;;;;;;;;;;18.70;61.90;;;;;;5092869;28;19939;-71
2022/05/01 08:44:13;;;;;;;;;;;19.10;61.10;;;;;;5093105;28;20001;-72
2022/05/01 08:47:05;;;;;;;;;;;19.30;60.00;;;;;;5091345;28;19916;-71
2022/05/01 08:49:32;;;;;;;;;;;19.20;58.50;;;;;;5068935;28;19918;-72
2022/05/01 08:52:00;;;;;;;;;;;18.90;59.80;;;;;;5092875;28;19926;-71
2022/05/01 08:54:25;;;;;;;;;;;18.60;61.20;;;;;;5092590;28;20030;-71
2022/05/01 08:56:51;;;;;;;;;;;18.40;62.50;;;;;;5090250;28;20375;-72
2022/05/01 08:59:17;;;;;;;;;;;18.30;62.80;;;;;;5092699;28;19923;-71
2022/05/01 09:01:45;;;;;;;;;;;18.30;62.80;;;;;;5092823;28;19923;-71
2022/05/01 09:04:12;;;;;;;;;;;18.70;63.20;;;;;;5092935;28;19908;-71
2022/05/01 09:06:38;;;;;;;;;;;18.90;62.30;;;;;;5091142;28;19916;-70
2022/05/01 09:09:05;;;;;;;;;;;19.50;63.80;;;;;;5092866;28;19944;-70
2022/05/01 09:14:14;;;;;;;;;;;20.10;59.90;;;;;;5092725;28;19915;-70
2022/05/01 09:16:40;;;;;;;;;;;20.30;59.90;;;;;;5092224;28;19924;-70
2022/05/01 09:19:05;;;;;;;;;;;20.50;60.00;;;;;;5092265;28;19908;-71
2022/05/01 09:21:47;;;;;;;;;;;20.70;59.20;;;;;;5092284;28;19916;-72
2022/05/01 09:24:12;;;;;;;;;;;20.60;58.50;;;;;;5091161;28;20274;-72
2022/05/01 09:26:38;;;;;;;;;;;20.20;58.20;;;;;;5092247;28;20003;-72
2022/05/01 09:29:04;;;;;;;;;;;19.80;59.90;;;;;;5090803;28;20303;-72
2022/05/01 09:31:43;;;;;;;;;;;19.50;59.70;;;;;;5090559;28;20009;-71
2022/05/01 09:34:19;;;;;;;;;;;19.10;60.60;;;;;;5091841;28;19912;-71
2022/05/01 09:36:44;;;;;;;;;;;18.90;60.30;;;;;;5091957;28;19920;-71
2022/05/01 09:39:10;;;;;;;;;;;18.70;60.70;;;;;;5091936;28;19981;-70
2022/05/01 09:41:41;;;;;;;;;;;18.90;61.70;;;;;;5092100;28;19916;-71
2022/05/01 09:44:14;;;;;;;;;;;19.40;60.90;;;;;;5090561;28;19954;-71
2022/05/01 09:46:40;;;;;;;;;;;20.00;61.10;;;;;;5091623;28;19967;-72
2022/05/01 09:49:06;;;;;;;;;;;20.30;58.90;;;;;;5091657;28;20362;-72
2022/05/01 09:51:33;;;;;;;;;;;20.60;59.50;;;;;;5091904;28;19917;-71
2022/05/01 09:53:58;;;;;;;;;;;20.80;57.90;;;;;;5090232;28;19908;-70
2022/05/01 09:56:24;;;;;;;;;;;21.10;58.30;;;;;;5091860;28;20057;-69
2022/05/01 09:58:59;;;;;;;;;;;21.10;57.20;;;;;;5091739;28;19963;-70
2022/05/01 10:01:25;;;;;;;;;;;21.00;57.10;;;;;;5091745;28;20313;-69
2022/05/01 10:03:52;;;;;;;;;;;20.70;56.50;;;;;;5091709;28;19912;-70
2022/05/01 10:06:18;;;;;;;;;;;20.10;57.00;;;;;;5091397;28;20254;-70
2022/05/01 10:08:44;;;;;;;;;;;19.80;58.10;;;;;;5091013;28;19994;-70
2022/05/01 10:11:14;;;;;;;;;;;19.60;59.70;;;;;;5091509;28;20462;-70
2022/05/01 10:13:41;;;;;;;;;;;19.90;60.60;;;;;;5091464;28;20374;-70
2022/05/01 10:16:09;;;;;;;;;;;19.80;61.40;;;;;;5091122;28;19926;-70
2022/05/01 10:18:37;;;;;;;;;;;20.30;59.80;;;;;;5090473;28;21417;-70
2022/05/01 10:21:04;;;;;;;;;;;20.70;58.20;;;;;;5089716;28;19993;-71
2022/05/01 10:23:29;;;;;;;;;;;21.30;55.60;;;;;;5091220;28;19939;-70
2022/05/01 10:26:01;;;;;;;;;;;21.70;55.30;;;;;;5091270;28;19912;-71
2022/05/01 10:28:32;;;;;;;;;;;21.50;55.30;;;;;;5091021;28;20011;-71
2022/05/01 10:34:01;;;;;;;;;;;21.00;56.50;;;;;;5091432;28;19935;-72
2022/05/01 10:36:26;;;;;;;;;;;20.70;56.50;;;;;;5091241;28;19916;-71
2022/05/01 10:39:01;;;;;;;;;;;20.10;57.20;;;;;;5089858;28;19943;-72
2022/05/01 10:41:28;;;;;;;;;;;19.80;56.70;;;;;;5091126;28;19916;-72
2022/05/01 10:43:55;;;;;;;;;;;19.70;55.90;;;;;;5090984;28;19913;-71
2022/05/01 10:46:21;;;;;;;;;;;19.90;56.60;;;;;;5091492;28;19912;-71
2022/05/01 10:48:46;;;;;;;;;;;20.40;56.60;;;;;;5090986;28;19924;-71
2022/05/01 10:51:30;;;;;;;;;;;20.90;56.40;;;;;;5091295;28;19919;-71
2022/05/01 10:54:14;;;;;;;;;;;21.20;56.70;;;;;;5091307;28;19913;-71
2022/05/01 10:56:41;;;;;;;;;;;21.70;56.30;;;;;;5091083;28;19916;-71
2022/05/01 10:59:25;;;;;;;;;;;22.30;55.20;;;;;;5091064;28;19980;-71
2022/05/01 11:01:52;;;;;;;;;;;22.70;54.60;;;;;;5091035;28;19912;-72
2022/05/01 11:04:19;;;;;;;;;;;22.10;54.00;;;;;;5089525;28;20010;-71
2022/05/01 11:06:45;;;;;;;;;;;22.00;53.80;;;;;;5091296;28;19923;-72
2022/05/01 11:09:14;;;;;;;;;;;21.90;53.70;;;;;;5090973;28;20276;-71
2022/05/01 11:11:39;;;;;;;;;;;21.70;54.50;;;;;;5091211;28;19918;-72
2022/05/01 11:14:05;;;;;;;;;;;21.50;54.30;;;;;;5090759;28;20003;-72
2022/05/01 11:16:50;;;;;;;;;;;21.60;54.70;;;;;;5090588;28;20278;-72
2022/05/01 11:19:16;;;;;;;;;;;22.10;54.30;;;;;;5089498;28;19928;-73
2022/05/01 11:21:46;;;;;;;;;;;22.60;54.10;;;;;;5094364;28;19912;-73
2022/05/01 11:24:15;;;;;;;;;;;22.80;53.60;;;;;;5093146;28;19958;-72
2022/05/01 11:27:00;;;;;;;;;;;23.00;53.80;;;;;;5094302;28;19912;-72
2022/05/01 11:29:25;;;;;;;;;;;23.00;52.30;;;;;;5094455;28;19950;-72
2022/05/01 11:31:52;;;;;;;;;;;22.70;53.40;;;;;;5094565;28;19954;-72
2022/05/01 11:34:21;;;;;;;;;;;22.80;52.80;;;;;;5094106;28;19920;-72
2022/05/01 11:36:54;;;;;;;;;;;22.90;52.90;;;;;;5094371;28;20259;-72
2022/05/01 11:39:20;;;;;;;;;;;23.00;52.00;;;;;;5094166;28;19965;-73
2022/05/01 11:41:48;;;;;;;;;;;23.10;52.40;;;;;;5093068;28;19918;-72
2022/05/01 11:44:23;;;;;;;;;;;22.50;53.20;;;;;;5092806;28;19923;-73
2022/05/01 11:46:49;;;;;;;;;;;22.30;52.40;;;;;;5094159;28;19908;-72
2022/05/01 11:49:15;;;;;;;;;;;22.00;53.00;;;;;;5094068;28;19922;-72
2022/05/01 11:51:40;;;;;;;;;;;21.70;52.50;;;;;;5094036;28;20348;-72
2022/05/01 11:54:08;;;;;;;;;;;21.20;51.90;;;;;;5093852;28;19958;-72
2022/05/01 12:04:45;;;;;;;;;;;19.60;53.50;;;;;;5093769;28;20338;-72
2022/05/01 12:07:12;;;;;;;;;;;19.10;55.90;;;;;;5093953;28;19912;-73
2022/05/01 12:09:39;;;;;;;;;;;18.90;57.10;;;;;;5091932;28;19969;-72
2022/05/01 12:12:10;;;;;;;;;;;19.10;56.50;;;;;;5092261;28;20019;-72
2022/05/01 12:14:35;;;;;;;;;;;19.40;56.50;;;;;;5093463;28;19992;-71
2022/05/01 12:17:04;;;;;;;;;;;19.80;56.10;;;;;;5093283;28;19965;-73
2022/05/01 12:19:35;;;;;;;;;;;20.20;55.30;;;;;;5092170;28;20296;-74
2022/05/01 12:22:00;;;;;;;;;;;20.30;53.60;;;;;;5093887;28;19961;-72
2022/05/01 12:24:26;;;;;;;;;;;20.30;53.50;;;;;;5092211;28;20330;-73
2022/05/01 12:26:52;;;;;;;;;;;20.20;54.70;;;;;;5093701;28;19912;-77
2022/05/01 12:29:18;;;;;;;;;;;19.80;54.60;;;;;;5093829;28;19916;-74
2022/05/01 12:32:06;;;;;;;;;;;19.60;55.20;;;;;;5093296;28;19916;-75
2022/05/01 12:34:33;;;;;;;;;;;19.20;55.70;;;;;;5093052;28;19912;-73
2022/05/01 12:36:59;;;;;;;;;;;19.10;55.00;;;;;;5093375;28;19920;-72
2022/05/01 12:39:26;;;;;;;;;;;19.20;54.30;;;;;;5092970;28;19935;-74
2022/05/01 12:45:04;;;;;;;;;;;19.30;55.30;;;;;;5093118;28;19919;-73
2022/05/01 12:47:30;;;;;;;;;;;19.60;55.20;;;;;;5093401;28;20023;-73
2022/05/01 12:49:56;;;;;;;;;;;19.40;56.00;;;;;;5092854;28;19957;-73
2022/05/01 12:52:38;;;;;;;;;;;19.30;57.00;;;;;;5093304;28;19912;-73
2022/05/01 12:55:08;;;;;;;;;;;19.10;56.20;;;;;;5093259;28;20351;-74
2022/05/01 12:57:34;;;;;;;;;;;19.00;54.50;;;;;;5093051;28;19916;-73
2022/05/01 12:59:59;;;;;;;;;;;18.70;54.90;;;;;;5092857;28;20014;-74
2022/05/01 13:02:25;;;;;;;;;;;18.60;54.80;;;;;;5093101;28;20291;-73
2022/05/01 13:05:03;;;;;;;;;;;18.70;55.50;;;;;;5092766;28;19916;-72
2022/05/01 13:07:34;;;;;;;;;;;18.70;56.00;;;;;;5092913;28;20002;-74
2022/05/01 13:10:00;;;;;;;;;;;18.70;57.40;;;;;;5092503;28;19917;-74
2022/05/01 13:12:29;;;;;;;;;;;18.80;56.60;;;;;;5092835;28;19943;-72
2022/05/01 13:14:58;;;;;;;;;;;18.70;55.90;;;;;;5092219;28;20003;-72
2022/05/01 13:17:27;;;;;;;;;;;18.60;56.10;;;;;;5090921;28;20384;-73
2022/05/01 13:19:53;;;;;;;;;;;18.60;55.50;;;;;;5090871;28;19920;-73
2022/05/01 13:22:18;;;;;;;;;;;18.60;55.30;;;;;;5092756;28;19919;-73
2022/05/01 13:24:44;;;;;;;;;;;18.40;55.80;;;;;;5092154;28;19912;-73
2022/05/01 13:27:11;;;;;;;;;;;18.40;55.40;;;;;;5092110;28;19959;-73
2022/05/01 13:29:38;;;;;;;;;;;18.40;56.00;;;;;;5092157;28;19959;-73
2022/05/01 13:32:05;;;;;;;;;;;18.40;56.40;;;;;;5090761;28;19919;-73
2022/05/01 13:34:30;;;;;;;;;;;18.40;56.70;;;;;;5092081;28;20368;-73
2022/05/01 13:36:57;;;;;;;;;;;18.50;55.70;;;;;;5091904;28;19912;-73
2022/05/01 13:39:22;;;;;;;;;;;18.30;56.00;;;;;;5090491;28;19973;-73
2022/05/01 13:44:44;;;;;;;;;;;18.00;56.80;;;;;;5091754;28;20390;-73
2022/05/01 13:47:11;;;;;;;;;;;17.90;57.00;;;;;;5092260;28;19977;-74
2022/05/01 13:49:37;;;;;;;;;;;17.90;57.00;;;;;;5090459;28;20404;-73
2022/05/01 13:52:03;;;;;;;;;;;17.90;57.60;;;;;;5092124;28;19912;-74
2022/05/01 13:54:29;;;;;;;;;;;18.00;56.90;;;;;;5091713;28;20276;-73
2022/05/01 13:56:54;;;;;;;;;;;17.90;56.50;;;;;;5090285;28;19919;-73
2022/05/01 13:59:20;;;;;;;;;;;18.00;57.00;;;;;;5091697;28;19912;-73
2022/05/01 14:01:46;;;;;;;;;;;18.00;57.20;;;;;;5090301;28;20207;-73
2022/05/01 14:04:11;;;;;;;;;;;17.90;57.10;;;;;;5091752;28;19919;-74
2022/05/01 14:06:37;;;;;;;;;;;17.70;57.30;;;;;;5091593;28;19916;-74
2022/05/01 14:09:03;;;;;;;;;;;17.70;58.40;;;;;;5091546;28;20003;-72
2022/05/01 14:11:29;;;;;;;;;;;17.60;58.10;;;;;;5091409;28;19912;-73
2022/05/01 14:13:55;;;;;;;;;;;17.70;57.60;;;;;;5090109;28;19977;-73
2022/05/01 14:16:20;;;;;;;;;;;17.70;57.30;;;;;;5091133;28;19989;-72
2022/05/01 14:18:47;;;;;;;;;;;17.70;57.80;;;;;;5091377;28;20368;-72
2022/05/01 14:21:16;;;;;;;;;;;17.70;57.70;;;;;;5089957;28;20010;-73
2022/05/01 14:23:43;;;;;;;;;;;17.70;58.20;;;;;;5090057;28;19917;-73
2022/05/01 14:26:08;;;;;;;;;;;17.80;58.00;;;;;;5091007;28;19912;-73
2022/05/01 14:28:34;;;;;;;;;;;17.70;57.90;;;;;;5091258;28;19961;-73
2022/05/01 14:31:06;;;;;;;;;;;17.70;57.40;;;;;;5091144;28;19983;-72
2022/05/01 14:33:36;;;;;;;;;;;17.70;58.50;;;;;;5091172;28;19952;-73
2022/05/01 14:36:02;;;;;;;;;;;17.60;57.00;;;;;;5091112;28;19960;-73
2022/05/01 14:38:47;;;;;;;;;;;17.50;58.20;;;;;;5091125;28;20372;-73
2022/05/01 14:41:15;;;;;;;;;;;17.40;57.70;;;;;;5091439;28;19912;-73
2022/05/01 14:43:43;;;;;;;;;;;17.50;57.60;;;;;;5091387;28;19912;-73
2022/05/01 14:46:09;;;;;;;;;;;17.50;57.40;;;;;;5091251;28;19955;-73
2022/05/01 14:48:52;;;;;;;;;;;17.50;56.60;;;;;;5091392;28;19919;-73
2022/05/01 14:51:18;;;;;;;;;;;17.50;57.30;;;;;;5089545;28;19969;-73
2022/05/01 14:53:43;;;;;;;;;;;17.40;57.90;;;;;;5091382;28;19982;-73